KHPN/HPN METAR and TAF weather

Enter ICAO airport designator
Station Type Date Time Source
KHPN METAR 2021/10/22 19:56 UTC NOAA

KHPN 221956Z 30008KT 10SM SCT035 BKN100 18/10 A2987 RMK AO2 SLP114 T01780100 $


Station Type Date Time Source
KHPN Decoded METAR 2021/10/22 19:56 UTC NOAA

WHITE PLAINS WESTCHESTER, NY, United States (KHPN) 41-04N 073-42W 121M
Oct 22, 2021 - 03:56 PM EDT / 2021.10.22 1956 UTC
Wind: from the WNW (300 degrees) at 9 MPH (8 KT):0
Visibility: 10 mile(s):0
Sky conditions: mostly cloudy
Temperature: 64.0 F (17.8 C)
Dew Point: 50.0 F (10.0 C)
Relative Humidity: 60%
Pressure (altimeter): 29.87 in. Hg (1011 hPa)
ob: KHPN 221956Z 30008KT 10SM SCT035 BKN100 18/10 A2987 RMK AO2 SLP114 T01780100
cycle: 20

Station Type Date Time Source
KHPN TAF 2021/10/22 19:16 UTC NOAA

TAF
AMD KHPN 221914Z 2219/2318 30007KT P6SM BKN060
TEMPO 2219/2221 23006KT
FM222300 32005KT P6SM BKN060
FM230500 32005KT P6SM BKN045
FM231000 32004KT P6SM BKN035
FM231500 29006KT P6SM BKN035
AMD NOT SKED

Example: see airport list